Time;durP1;ratioP1;P1;durP2;ratioP2;P2;SDS_P1;SDS_P2;PMS_P1;PMS_P2;Temp;Humidity;BMP_temperature;BMP_pressure;BME280_temperature;BME280_humidity;BME280_pressure;Samples;Min_cycle;Max_cycle;Signal;HPM_P1;HPM_P2
2023/06/13 00:00:29;;;;;;;2.90;1.70;;;;;;;13.55;69.36;101859.81;5037711;28;20597;-50
2023/06/13 00:02:55;;;;;;;3.70;1.70;;;;;;;13.52;69.74;101855.44;5042920;28;20197;-53
2023/06/13 00:05:21;;;;;;;2.90;1.70;;;;;;;13.45;70.17;101844.94;5037482;28;20227;-50
2023/06/13 00:07:49;;;;;;;4.90;1.73;;;;;;;13.26;70.54;101852.72;5033181;28;20234;-51
2023/06/13 00:10:15;;;;;;;6.93;2.03;;;;;;;13.33;70.79;101848.91;5035816;28;20187;-51
2023/06/13 00:12:44;;;;;;;3.72;2.17;;;;;;;13.33;70.35;101847.09;5036568;28;20229;-51
2023/06/13 00:15:11;;;;;;;5.78;2.08;;;;;;;13.36;70.71;101843.44;5043015;28;20570;-51
2023/06/13 00:17:38;;;;;;;7.53;1.90;;;;;;;13.29;70.60;101845.44;5033006;28;20207;-51
2023/06/13 00:20:08;;;;;;;5.40;1.60;;;;;;;13.31;70.66;101850.75;5035629;28;20179;-50
2023/06/13 00:22:34;;;;;;;3.03;1.88;;;;;;;13.39;70.78;101846.88;5036827;28;20850;-51
2023/06/13 00:25:00;;;;;;;4.43;1.73;;;;;;;13.39;70.93;101843.31;5034518;28;20210;-51
2023/06/13 00:27:25;;;;;;;2.35;1.55;;;;;;;13.46;70.96;101839.47;5035207;28;20215;-52
2023/06/13 00:29:51;;;;;;;5.78;2.17;;;;;;;13.45;70.69;101836.88;5047741;28;20183;-50
2023/06/13 00:32:17;;;;;;;2.92;1.40;;;;;;;13.39;70.82;101830.72;5032332;28;20172;-52
2023/06/13 00:34:44;;;;;;;1.88;1.50;;;;;;;13.42;71.04;101821.66;5038205;28;20187;-51
2023/06/13 00:37:10;;;;;;;3.55;1.60;;;;;;;13.33;71.11;101820.16;5042443;28;20450;-56
2023/06/13 00:39:41;;;;;;;2.17;1.70;;;;;;;13.35;71.61;101825.50;5035147;28;20266;-53
2023/06/13 00:42:07;;;;;;;6.07;1.95;;;;;;;13.29;71.81;101831.09;5035230;28;20306;-51
2023/06/13 00:44:33;;;;;;;1.63;1.52;;;;;;;13.26;72.03;101831.19;5031449;28;20171;-51
2023/06/13 00:47:00;;;;;;;3.53;1.70;;;;;;;12.95;72.13;101824.13;5053086;28;20216;-51
2023/06/13 00:49:26;;;;;;;3.35;1.75;;;;;;;12.94;72.76;101825.03;5030784;28;20655;-51
2023/06/13 00:51:55;;;;;;;2.90;1.58;;;;;;;12.87;73.05;101832.41;5032170;28;20172;-50
2023/06/13 00:54:21;;;;;;;4.32;2.05;;;;;;;12.62;73.30;101824.25;5047288;28;20560;-51
2023/06/13 00:56:48;;;;;;;2.05;1.80;;;;;;;12.50;74.19;101830.84;5031391;28;20199;-50
2023/06/13 00:59:14;;;;;;;5.32;1.90;;;;;;;12.45;74.91;101830.13;5036396;28;20302;-53
2023/06/13 01:01:42;;;;;;;1.75;1.65;;;;;;;12.56;75.38;101830.69;5047109;28;20184;-50
2023/06/13 01:04:08;;;;;;;3.35;1.80;;;;;;;12.56;75.54;101835.19;5031851;28;20519;-53
2023/06/13 01:06:40;;;;;;;2.20;1.60;;;;;;;12.46;75.87;101831.00;5033199;28;20295;-53
2023/06/13 01:09:06;;;;;;;1.60;1.35;;;;;;;12.45;76.49;101835.50;5028834;28;20563;-50
2023/06/13 01:11:47;;;;;;;2.17;1.52;;;;;;;12.43;76.74;101828.41;5032578;28;20229;-51
2023/06/13 01:14:34;;;;;;;2.47;1.80;;;;;;;12.32;76.96;101826.03;5051218;28;20221;-51
2023/06/13 01:17:26;;;;;;;3.20;1.67;;;;;;;12.26;77.47;101829.78;5014449;28;20206;-51
2023/06/13 01:19:58;;;;;;;2.53;1.73;;;;;;;12.08;77.95;101833.00;5002570;28;20204;-50
2023/06/13 01:22:37;;;;;;;1.73;1.58;;;;;;;12.18;78.29;101825.56;5027425;28;20191;-53
2023/06/13 01:28:33;;;;;;;2.45;1.80;;;;;;;12.09;78.53;101829.38;5032891;28;20875;-52
2023/06/13 01:31:02;;;;;;;3.38;2.00;;;;;;;12.04;78.45;101832.22;5030654;28;20188;-52
2023/06/13 01:33:30;;;;;;;3.40;1.70;;;;;;;12.03;78.83;101830.47;5015811;28;20176;-52
2023/06/13 01:35:56;;;;;;;5.00;1.92;;;;;;;11.87;79.14;101821.94;5035559;28;20211;-52
2023/06/13 01:38:22;;;;;;;1.95;1.50;;;;;;;11.78;79.79;101829.34;5036747;28;20241;-52
2023/06/13 01:40:48;;;;;;;2.85;1.50;;;;;;;11.84;80.35;101831.84;5033721;28;20629;-52
2023/06/13 01:43:14;;;;;;;5.18;1.92;;;;;;;11.57;80.72;101831.69;5031895;28;20550;-53
2023/06/13 01:45:40;;;;;;;4.55;2.08;;;;;;;11.52;81.17;101826.44;5031171;28;20204;-52
2023/06/13 01:48:27;;;;;;;1.63;1.52;;;;;;;11.59;81.80;101824.47;5036427;28;20203;-53
2023/06/13 01:51:16;;;;;;;2.22;1.77;;;;;;;11.42;82.56;101837.44;5032095;28;20201;-52
2023/06/13 01:54:09;;;;;;;4.88;1.63;;;;;;;11.44;83.14;101839.16;5033039;28;20187;-52
2023/06/13 01:56:40;;;;;;;3.20;1.88;;;;;;;11.31;83.71;101835.91;5024346;28;20667;-51
2023/06/13 01:59:10;;;;;;;1.90;1.70;;;;;;;11.14;84.21;101840.81;5045403;28;20176;-52
2023/06/13 02:01:38;;;;;;;2.75;1.70;;;;;;;11.07;85.08;101832.03;5048812;28;20225;-52
2023/06/13 02:04:04;;;;;;;3.85;1.92;;;;;;;11.03;85.90;101835.69;5031554;28;20178;-51
2023/06/13 02:06:30;;;;;;;3.60;1.80;;;;;;;11.14;86.25;101836.31;5035853;28;20222;-51
2023/06/13 02:08:56;;;;;;;2.50;1.85;;;;;;;11.01;85.87;101823.25;5031922;28;20559;-52
2023/06/13 02:11:22;;;;;;;2.65;1.80;;;;;;;10.98;86.05;101832.25;5047014;28;20180;-51
2023/06/13 02:13:49;;;;;;;2.17;1.90;;;;;;;10.91;86.46;101818.13;5050822;28;20187;-51
2023/06/13 02:16:17;;;;;;;3.20;1.80;;;;;;;10.65;86.96;101826.75;5048446;28;20183;-51
2023/06/13 02:18:43;;;;;;;4.03;1.80;;;;;;;10.75;87.97;101822.06;5032469;28;20214;-52
2023/06/13 02:21:08;;;;;;;3.63;1.60;;;;;;;10.85;88.52;101822.75;5033528;28;20191;-51
2023/06/13 02:23:34;;;;;;;2.75;1.70;;;;;;;10.72;88.64;101828.38;5029491;28;20196;-51
2023/06/13 02:26:02;;;;;;;2.47;1.88;;;;;;;10.69;89.21;101832.91;5040185;28;20196;-52
2023/06/13 02:28:28;;;;;;;2.92;1.83;;;;;;;10.59;89.75;101818.84;5034687;28;20195;-51
2023/06/13 02:30:54;;;;;;;2.45;1.58;;;;;;;10.68;90.20;101824.00;5031932;28;20207;-51
2023/06/13 02:33:20;;;;;;;2.15;1.83;;;;;;;10.70;90.23;101832.00;5034498;28;20176;-49
2023/06/13 02:35:46;;;;;;;2.97;1.70;;;;;;;10.59;90.65;101821.53;5035123;28;20241;-50
2023/06/13 02:38:12;;;;;;;2.17;1.98;;;;;;;10.68;90.75;101823.13;5050588;28;20203;-52
2023/06/13 02:40:38;;;;;;;4.28;1.70;;;;;;;10.69;90.69;101816.84;5031990;28;20206;-50
2023/06/13 02:43:04;;;;;;;5.30;2.13;;;;;;;10.72;90.87;101812.28;5031128;28;20188;-51
2023/06/13 02:45:29;;;;;;;3.65;2.00;;;;;;;10.76;90.93;101813.13;5052325;28;20267;-50
2023/06/13 02:47:57;;;;;;;4.18;1.90;;;;;;;10.78;91.22;101821.09;5054376;28;20211;-49
2023/06/13 02:50:22;;;;;;;5.55;2.05;;;;;;;10.81;91.47;101823.72;5044381;28;20179;-49
2023/06/13 02:52:48;;;;;;;3.10;1.95;;;;;;;10.77;91.50;101811.31;5053803;28;20663;-50
2023/06/13 02:55:14;;;;;;;9.10;2.40;;;;;;;10.76;91.81;101815.78;5035105;28;20187;-49
2023/06/13 02:57:40;;;;;;;4.90;2.00;;;;;;;10.80;92.12;101819.28;5034831;28;20808;-50
2023/06/13 03:00:09;;;;;;;3.60;2.15;;;;;;;10.77;92.26;101822.91;5039201;28;20638;-50
2023/06/13 03:02:37;;;;;;;4.20;2.13;;;;;;;10.85;92.62;101814.69;5039049;28;20195;-51
2023/06/13 03:05:15;;;;;;;3.67;2.30;;;;;;;10.72;93.13;101814.97;5052260;28;20590;-50
2023/06/13 03:07:46;;;;;;;2.75;2.00;;;;;;;10.57;93.31;101827.84;5031345;28;20227;-50
2023/06/13 03:10:16;;;;;;;2.72;2.13;;;;;;;10.67;94.41;101814.22;5051116;28;20214;-50
2023/06/13 03:12:42;;;;;;;2.58;2.17;;;;;;;10.77;94.45;101803.28;5052458;28;20188;-50
2023/06/13 03:15:08;;;;;;;3.00;2.05;;;;;;;10.86;94.56;101805.72;5035525;28;20283;-50
2023/06/13 03:17:34;;;;;;;6.00;2.10;;;;;;;10.83;94.74;101808.50;5050358;28;20290;-51
2023/06/13 03:20:02;;;;;;;2.53;1.90;;;;;;;10.83;94.96;101808.50;5051708;28;20194;-51
2023/06/13 03:22:27;;;;;;;2.67;2.03;;;;;;;10.78;95.11;101813.06;5035999;28;20172;-51
2023/06/13 03:24:53;;;;;;;2.88;2.17;;;;;;;10.84;95.43;101815.59;5033659;28;20730;-52
2023/06/13 03:27:19;;;;;;;4.13;2.00;;;;;;;10.81;95.75;101813.88;5038420;28;20570;-51
2023/06/13 03:29:46;;;;;;;3.25;1.85;;;;;;;10.88;95.88;101819.97;5036119;28;20611;-52
2023/06/13 03:32:12;;;;;;;2.75;1.95;;;;;;;10.88;96.13;101812.81;5050832;28;20270;-53
2023/06/13 03:34:39;;;;;;;2.75;2.25;;;;;;;10.96;96.60;101815.31;5051079;28;20258;-51
2023/06/13 03:37:09;;;;;;;2.53;2.20;;;;;;;10.91;96.66;101809.16;5031344;28;20275;-52
2023/06/13 03:39:35;;;;;;;4.55;2.08;;;;;;;11.04;96.70;101821.41;5050184;28;20682;-51
2023/06/13 03:42:02;;;;;;;3.88;2.10;;;;;;;11.03;96.82;101819.63;5042742;28;20211;-51
2023/06/13 03:44:29;;;;;;;3.05;2.50;;;;;;;11.09;97.05;101813.22;5049403;28;20203;-51
2023/06/13 03:46:56;;;;;;;3.22;2.13;;;;;;;11.10;97.26;101813.16;5050972;28;20291;-51
2023/06/13 03:49:23;;;;;;;3.70;2.30;;;;;;;11.13;98.01;101815.78;5036222;28;20210;-51
2023/06/13 03:51:49;;;;;;;4.30;2.10;;;;;;;11.18;98.30;101813.00;5031140;28;20183;-51
2023/06/13 03:54:16;;;;;;;2.88;2.33;;;;;;;11.20;98.83;101807.59;5050306;28;20236;-51
2023/06/13 03:56:41;;;;;;;3.05;2.20;;;;;;;11.28;99.66;101816.31;5033436;28;20195;-52
2023/06/13 03:59:07;;;;;;;6.13;2.50;;;;;;;11.36;100.00;101819.69;5050917;28;20207;-51
2023/06/13 04:01:32;;;;;;;4.15;2.45;;;;;;;11.45;100.00;101819.44;5036425;28;20255;-50
2023/06/13 04:03:59;;;;;;;3.53;2.10;;;;;;;11.55;100.00;101822.78;5051005;28;20287;-51
2023/06/13 04:06:25;;;;;;;4.28;2.40;;;;;;;11.64;100.00;101822.53;5041316;28;20238;-51
2023/06/13 04:08:52;;;;;;;3.00;2.30;;;;;;;11.64;100.00;101817.16;5032287;28;20187;-51
2023/06/13 04:11:18;;;;;;;3.42;2.35;;;;;;;11.75;100.00;101815.06;5033195;28;20620;-52
2023/06/13 04:13:43;;;;;;;3.35;2.35;;;;;;;11.84;100.00;101815.75;5033898;28;20270;-52
2023/06/13 04:16:09;;;;;;;3.10;2.28;;;;;;;11.92;100.00;101813.78;5031372;28;20176;-51
2023/06/13 04:18:37;;;;;;;5.47;2.50;;;;;;;11.90;100.00;101803.06;5052512;28;20179;-50
2023/06/13 04:21:09;;;;;;;7.38;2.70;;;;;;;11.84;100.00;101811.25;5039183;28;20187;-51
2023/06/13 04:23:34;;;;;;;3.25;2.70;;;;;;;11.82;100.00;101810.41;5052284;28;20210;-51
2023/06/13 04:26:05;;;;;;;3.15;2.30;;;;;;;11.93;100.00;101818.19;5038528;28;20562;-52
2023/06/13 04:28:32;;;;;;;3.20;2.40;;;;;;;12.08;100.00;101816.91;5035131;28;20572;-51
2023/06/13 04:31:00;;;;;;;5.07;2.35;;;;;;;12.16;100.00;101804.13;5032952;28;20172;-51
2023/06/13 04:33:26;;;;;;;3.13;2.28;;;;;;;12.23;100.00;101803.00;5024234;28;20198;-51
2023/06/13 04:35:54;;;;;;;3.03;2.38;;;;;;;12.33;100.00;101808.97;5035925;28;20568;-52
2023/06/13 04:38:21;;;;;;;6.22;2.40;;;;;;;12.52;100.00;101802.13;5037214;28;20202;-51
2023/06/13 04:40:47;;;;;;;9.60;2.58;;;;;;;12.54;100.00;101799.41;5034561;28;20191;-51
2023/06/13 04:43:14;;;;;;;4.43;2.42;;;;;;;12.61;100.00;101795.59;5034550;28;20180;-53
2023/06/13 04:45:44;;;;;;;5.45;2.53;;;;;;;12.68;100.00;101789.09;5038284;28;20211;-52
2023/06/13 04:48:10;;;;;;;4.10;2.38;;;;;;;12.87;100.00;101785.81;5034314;28;20200;-51
2023/06/13 04:50:40;;;;;;;6.05;2.38;;;;;;;12.90;100.00;101796.47;5030982;28;20202;-52
2023/06/13 04:53:08;;;;;;;3.67;2.22;;;;;;;12.99;100.00;101791.69;5031810;28;20558;-51
2023/06/13 04:55:37;;;;;;;8.65;2.65;;;;;;;13.07;100.00;101795.91;5037615;28;20207;-50
2023/06/13 04:58:06;;;;;;;3.80;2.20;;;;;;;13.24;100.00;101792.66;5030869;28;20282;-52
2023/06/13 05:00:32;;;;;;;4.15;2.15;;;;;;;13.33;100.00;101795.06;5033214;28;20188;-52
2023/06/13 05:03:00;;;;;;;3.47;2.47;;;;;;;13.46;100.00;101784.75;5035005;28;20678;-52
2023/06/13 05:05:26;;;;;;;3.42;2.40;;;;;;;13.57;100.00;101782.56;5034639;28;20199;-47
2023/06/13 05:08:00;;;;;;;5.15;2.55;;;;;;;13.63;100.00;101786.88;5032319;28;20282;-46
2023/06/13 05:10:26;;;;;;;4.95;1.90;;;;;;;13.83;99.72;101776.25;5031770;28;20190;-46
2023/06/13 05:12:52;;;;;;;4.90;2.00;;;;;;;13.85;98.92;101781.59;5034662;28;20183;-46
2023/06/13 05:15:21;;;;;;;4.28;2.20;;;;;;;13.91;97.69;101774.16;5036057;28;20178;-46
2023/06/13 05:17:48;;;;;;;4.60;2.28;;;;;;;13.93;96.75;101779.50;5032555;28;20753;-47
2023/06/13 05:20:14;;;;;;;6.10;2.10;;;;;;;14.01;95.64;101780.97;5031226;28;20179;-48
2023/06/13 05:22:41;;;;;;;4.07;2.00;;;;;;;14.09;94.97;101775.28;5033969;28;20651;-48
2023/06/13 05:25:11;;;;;;;5.85;2.38;;;;;;;14.33;93.82;101780.69;5032453;28;20211;-47
2023/06/13 05:27:37;;;;;;;3.38;2.13;;;;;;;14.40;93.03;101774.97;5033205;28;20505;-47
2023/06/13 05:30:05;;;;;;;2.50;1.98;;;;;;;14.51;92.30;101773.69;5028901;28;20187;-47
2023/06/13 05:32:31;;;;;;;3.80;1.92;;;;;;;14.30;91.66;101783.47;5044953;28;20203;-46
2023/06/13 05:34:57;;;;;;;4.93;2.17;;;;;;;14.50;91.45;101780.91;5034651;28;20519;-46
2023/06/13 05:37:22;;;;;;;5.47;1.73;;;;;;;14.68;90.96;101776.63;5030078;28;20191;-47
2023/06/13 05:39:48;;;;;;;4.28;2.17;;;;;;;14.75;90.37;101775.41;5033268;28;20309;-45
2023/06/13 05:42:13;;;;;;;7.50;2.35;;;;;;;14.89;89.64;101782.06;5032153;28;20245;-44
2023/06/13 05:44:39;;;;;;;3.50;1.98;;;;;;;15.07;88.67;101780.44;5027715;28;20187;-44
2023/06/13 05:47:05;;;;;;;4.80;2.03;;;;;;;15.08;88.28;101785.75;5013909;28;20231;-45
2023/06/13 05:49:30;;;;;;;3.70;2.53;;;;;;;14.86;87.98;101779.50;5042435;28;20310;-44
2023/06/13 05:51:57;;;;;;;4.07;2.35;;;;;;;14.88;87.78;101772.22;5035891;28;20606;-45
2023/06/13 05:54:22;;;;;;;4.85;2.05;;;;;;;14.76;87.76;101777.19;5039214;28;20232;-44
2023/06/13 05:56:48;;;;;;;5.88;2.22;;;;;;;14.84;87.43;101776.88;5033061;28;20203;-45
2023/06/13 05:59:14;;;;;;;6.38;1.95;;;;;;;15.07;87.25;101778.63;5032299;28;20183;-47
2023/06/13 06:01:44;;;;;;;4.43;2.28;;;;;;;14.92;86.38;101768.47;5035114;28;20196;-54
2023/06/13 06:04:10;;;;;;;10.25;2.15;;;;;;;15.36;86.19;101771.97;5029753;28;20226;-51
2023/06/13 06:06:35;;;;;;;7.97;2.38;;;;;;;15.56;85.48;101772.94;5032809;28;20208;-50
2023/06/13 06:09:01;;;;;;;4.00;2.08;;;;;;;15.75;84.88;101771.19;5041783;28;20187;-52
2023/06/13 06:11:27;;;;;;;10.00;2.38;;;;;;;15.47;84.08;101767.94;5039190;28;20661;-51
2023/06/13 06:13:52;;;;;;;5.43;2.20;;;;;;;15.30;84.25;101766.84;5038107;28;20184;-54
2023/06/13 06:16:18;;;;;;;4.32;2.00;;;;;;;15.60;84.32;101772.72;5037864;28;20175;-51
2023/06/13 06:18:43;;;;;;;3.90;2.25;;;;;;;15.76;84.17;101770.25;5038138;28;20279;-51
2023/06/13 06:21:09;;;;;;;8.45;2.08;;;;;;;16.12;82.54;101750.59;5037204;28;20257;-53
2023/06/13 06:23:36;;;;;;;3.72;2.38;;;;;;;16.22;81.89;101741.13;5037001;28;20191;-52
2023/06/13 06:26:02;;;;;;;6.15;2.25;;;;;;;16.56;80.50;101739.47;5037150;28;20218;-50
2023/06/13 06:28:27;;;;;;;3.33;2.05;;;;;;;16.70;79.47;101738.78;5039252;28;20204;-50
2023/06/13 06:30:52;;;;;;;5.88;2.13;;;;;;;16.55;79.33;101737.75;5036979;28;20183;-50
2023/06/13 06:33:18;;;;;;;5.57;1.90;;;;;;;16.73;78.94;101737.78;5037738;28;20274;-50
2023/06/13 06:35:44;;;;;;;3.33;1.80;;;;;;;17.31;77.82;101734.84;5037684;28;20247;-50
2023/06/13 06:38:09;;;;;;;3.67;2.05;;;;;;;17.61;76.43;101728.78;5035219;28;20697;-50
2023/06/13 06:40:35;;;;;;;3.38;2.20;;;;;;;17.00;76.17;101733.72;5035858;28;20184;-52
2023/06/13 06:43:00;;;;;;;7.57;1.92;;;;;;;16.69;77.26;101734.34;5036551;28;20179;-53
2023/06/13 06:45:28;;;;;;;5.05;2.10;;;;;;;16.85;77.53;101735.34;5034609;28;20196;-51
2023/06/13 06:47:54;;;;;;;4.28;2.13;;;;;;;17.02;76.46;101745.34;5037999;28;20226;-50
2023/06/13 06:50:20;;;;;;;8.57;2.03;;;;;;;17.16;76.53;101747.34;5035701;28;20187;-50
2023/06/13 06:52:46;;;;;;;3.92;1.77;;;;;;;16.78;76.21;101739.31;5035110;28;20208;-50
2023/06/13 06:55:11;;;;;;;4.05;1.80;;;;;;;16.95;77.29;101753.88;5035741;28;20374;-49
2023/06/13 06:57:37;;;;;;;5.10;2.10;;;;;;;17.44;75.99;101748.63;5034603;28;20227;-50
2023/06/13 07:00:04;;;;;;;4.25;2.47;;;;;;;17.90;74.11;101728.09;5032484;28;20190;-50
2023/06/13 07:02:29;;;;;;;6.63;2.10;;;;;;;17.78;72.80;101719.75;5036656;28;20203;-50
2023/06/13 07:04:55;;;;;;;2.67;1.98;;;;;;;18.35;72.37;101722.94;5036510;28;20180;-51
2023/06/13 07:07:21;;;;;;;10.63;3.40;;;;;;;18.46;72.42;101717.75;5038573;28;20280;-52
2023/06/13 07:09:47;;;;;;;6.03;2.28;;;;;;;17.58;72.26;101718.97;5034996;28;20651;-50
2023/06/13 07:12:12;;;;;;;4.72;1.88;;;;;;;17.67;73.58;101732.03;5035081;28;20191;-49
2023/06/13 07:14:38;;;;;;;7.05;2.58;;;;;;;17.61;73.97;101742.31;5037142;28;20222;-50
2023/06/13 07:17:03;;;;;;;5.18;1.88;;;;;;;17.58;74.14;101731.63;5034381;28;20204;-51
2023/06/13 07:19:29;;;;;;;8.30;2.40;;;;;;;17.76;73.39;101735.22;5032939;28;20192;-51
2023/06/13 07:21:55;;;;;;;5.35;2.60;;;;;;;18.34;72.49;101723.88;5047598;28;20195;-50
2023/06/13 07:24:20;;;;;;;5.20;2.17;;;;;;;18.57;72.55;101732.56;5035236;28;20179;-50
2023/06/13 07:26:46;;;;;;;6.38;2.53;;;;;;;18.02;71.62;101717.56;5036526;28;20230;-50
2023/06/13 07:29:11;;;;;;;4.10;2.20;;;;;;;18.68;71.67;101720.09;5035466;28;20559;-52
2023/06/13 07:31:37;;;;;;;4.50;2.00;;;;;;;18.54;70.23;101714.59;5036324;28;20187;-50
2023/06/13 07:34:02;;;;;;;4.18;2.10;;;;;;;18.43;70.37;101717.03;5039583;28;20191;-50
2023/06/13 07:36:28;;;;;;;6.47;2.08;;;;;;;18.72;71.06;101728.97;5035000;28;20181;-50
2023/06/13 07:38:53;;;;;;;5.07;2.15;;;;;;;19.26;69.14;101718.53;5039351;28;20209;-48
2023/06/13 07:41:19;;;;;;;5.43;2.53;;;;;;;19.31;67.76;101719.13;5035638;28;20619;-44
2023/06/13 07:43:44;;;;;;;5.03;2.33;;;;;;;19.21;68.34;101726.06;5034491;28;20524;-46
2023/06/13 07:46:13;;;;;;;4.10;2.30;;;;;;;19.02;68.80;101736.28;5041361;28;20527;-44
2023/06/13 07:48:38;;;;;;;10.63;2.30;;;;;;;18.85;68.24;101719.16;5034648;28;20194;-47
2023/06/13 07:51:05;;;;;;;10.95;2.75;;;;;;;19.33;68.07;101730.78;5039223;28;20175;-43
2023/06/13 07:53:30;;;;;;;4.38;2.10;;;;;;;19.06;67.63;101727.84;5038647;28;20167;-44
2023/06/13 07:55:56;;;;;;;4.38;1.98;;;;;;;19.20;67.91;101728.88;5037554;28;20187;-47
2023/06/13 07:58:21;;;;;;;4.65;2.35;;;;;;;19.35;67.50;101717.97;5032706;28;20242;-47
2023/06/13 08:00:47;;;;;;;5.13;2.50;;;;;;;19.42;66.31;101713.03;5038024;28;20230;-46
2023/06/13 08:03:12;;;;;;;5.93;2.38;;;;;;;19.28;67.29;101719.28;5037892;28;20192;-44
2023/06/13 08:05:38;;;;;;;5.15;2.60;;;;;;;19.20;67.37;101713.47;5032584;28;20191;-45
2023/06/13 08:08:03;;;;;;;6.05;2.22;;;;;;;19.80;66.42;101708.94;5035449;28;20230;-48
2023/06/13 08:10:29;;;;;;;3.80;2.20;;;;;;;19.29;65.27;101704.75;5033856;28;20219;-46
2023/06/13 08:12:54;;;;;;;7.07;2.53;;;;;;;19.18;65.90;101709.09;5032503;28;20296;-46
2023/06/13 08:15:20;;;;;;;5.82;2.30;;;;;;;19.75;66.86;101712.81;5052527;28;20187;-46
2023/06/13 08:17:46;;;;;;;5.55;2.00;;;;;;;19.12;66.74;101703.03;5038566;28;20204;-46
2023/06/13 08:20:12;;;;;;;8.40;2.58;;;;;;;19.28;66.42;101707.56;5034211;28;20184;-46
2023/06/13 08:22:39;;;;;;;5.32;2.63;;;;;;;19.61;66.04;101711.88;5035439;28;20260;-47
2023/06/13 08:25:08;;;;;;;4.70;2.20;;;;;;;20.14;66.32;101703.09;5033921;28;20285;-49
2023/06/13 08:27:36;;;;;;;10.07;2.70;;;;;;;19.89;65.77;101706.47;5034138;28;20199;-48
2023/06/13 08:30:06;;;;;;;9.02;2.53;;;;;;;20.03;64.84;101696.56;5031311;28;20183;-49
2023/06/13 08:32:31;;;;;;;5.28;2.50;;;;;;;19.83;65.28;101706.00;5033138;28;20174;-49
2023/06/13 08:34:59;;;;;;;4.85;2.22;;;;;;;19.74;65.75;101708.34;5048970;28;20187;-50
2023/06/13 08:37:25;;;;;;;5.30;2.55;;;;;;;20.19;64.93;101697.34;5031100;28;20188;-50
2023/06/13 08:39:51;;;;;;;8.57;2.72;;;;;;;20.22;65.59;101698.97;5035597;28;20214;-50
2023/06/13 08:42:19;;;;;;;7.03;2.50;;;;;;;19.99;64.72;101695.91;5033943;28;20269;-49
2023/06/13 08:44:45;;;;;;;8.32;2.63;;;;;;;19.76;64.05;101698.22;5031339;28;20650;-52
2023/06/13 08:47:12;;;;;;;5.45;2.17;;;;;;;19.92;64.06;101700.88;5035806;28;20214;-50
2023/06/13 08:49:38;;;;;;;4.20;2.05;;;;;;;20.45;63.38;101700.22;5031412;28;20188;-49
2023/06/13 08:52:08;;;;;;;4.50;2.00;;;;;;;21.10;62.73;101689.47;5030187;28;20179;-50
2023/06/13 08:54:35;;;;;;;5.15;2.38;;;;;;;20.57;62.11;101675.81;5033034;28;20199;-51
2023/06/13 08:57:04;;;;;;;7.55;2.38;;;;;;;20.33;62.17;101678.28;5030723;28;20755;-49
2023/06/13 08:59:33;;;;;;;6.03;2.47;;;;;;;20.66;60.57;101678.84;5039363;28;20229;-50
2023/06/13 09:01:59;;;;;;;5.32;1.95;;;;;;;21.09;58.48;101659.59;5033774;28;20206;-50
2023/06/13 09:04:28;;;;;;;3.75;2.05;;;;;;;20.93;57.95;101649.75;5034149;28;20520;-50
2023/06/13 09:06:58;;;;;;;5.45;2.20;;;;;;;21.04;57.84;101659.06;5035735;28;20199;-52
2023/06/13 09:09:28;;;;;;;4.15;2.13;;;;;;;20.89;58.02;101655.53;5053424;28;20181;-50
2023/06/13 09:11:55;;;;;;;6.53;2.10;;;;;;;20.88;57.65;101662.84;5033719;28;20554;-50
2023/06/13 09:14:21;;;;;;;5.78;1.90;;;;;;;20.63;56.92;101658.16;5023998;28;20263;-46
2023/06/13 09:16:53;;;;;;;8.15;2.00;;;;;;;20.66;57.55;101667.97;5035699;28;20215;-47
2023/06/13 09:19:18;;;;;;;6.00;2.22;;;;;;;20.73;57.30;101653.84;5037704;28;20178;-49
2023/06/13 09:21:44;;;;;;;5.32;2.10;;;;;;;21.22;56.01;101663.19;5028598;28;20175;-48
2023/06/13 09:24:09;;;;;;;6.40;2.28;;;;;;;20.79;56.37;101652.53;5032670;28;20183;-47
2023/06/13 09:26:35;;;;;;;6.65;1.85;;;;;;;20.46;56.02;101656.53;5035271;28;20219;-48
2023/06/13 09:29:01;;;;;;;6.22;2.00;;;;;;;21.19;56.33;101653.41;5039357;28;20657;-48
2023/06/13 09:31:29;;;;;;;5.07;1.70;;;;;;;21.84;54.68;101647.94;5033942;28;20194;-48
2023/06/13 09:34:00;;;;;;;5.10;2.22;;;;;;;21.15;54.94;101654.59;5031372;28;20179;-47
2023/06/13 09:36:26;;;;;;;4.07;2.08;;;;;;;20.56;55.31;101638.59;5035585;28;20653;-49
2023/06/13 09:38:53;;;;;;;4.47;2.38;;;;;;;20.66;54.61;101628.03;5033396;28;20179;-49
2023/06/13 09:41:20;;;;;;;4.53;1.92;;;;;;;20.64;55.21;101637.25;5034328;28;20206;-49
2023/06/13 09:43:45;;;;;;;4.90;2.00;;;;;;;20.80;55.44;101645.25;5032588;28;20229;-50
2023/06/13 09:46:14;;;;;;;4.78;2.13;;;;;;;20.84;55.15;101633.16;5035663;28;20760;-51
2023/06/13 09:48:44;;;;;;;7.07;1.88;;;;;;;20.94;54.27;101637.88;5036084;28;20194;-52
2023/06/13 09:51:13;;;;;;;3.25;2.20;;;;;;;21.53;53.75;101636.53;5038116;28;20213;-51
2023/06/13 09:53:39;;;;;;;7.95;2.20;;;;;;;21.70;55.18;101648.97;5036114;28;20186;-51
2023/06/13 09:56:09;;;;;;;7.43;2.10;;;;;;;21.87;55.00;101634.97;5038805;28;20206;-47
2023/06/13 09:58:38;;;;;;;6.13;2.28;;;;;;;22.05;53.91;101632.72;5035075;28;20211;-49
2023/06/13 10:01:04;;;;;;;4.95;2.08;;;;;;;21.71;53.73;101621.59;5039057;28;20174;-48
2023/06/13 10:03:30;;;;;;;3.78;2.22;;;;;;;21.69;52.09;101609.91;5033130;28;20673;-47
2023/06/13 10:06:00;;;;;;;4.68;2.00;;;;;;;21.40;52.17;101606.50;5035127;28;20600;-47
2023/06/13 10:08:26;;;;;;;5.40;2.22;;;;;;;21.70;52.28;101613.50;5037213;28;20199;-50
2023/06/13 10:10:52;;;;;;;6.18;2.03;;;;;;;20.84;53.06;101616.81;5035442;28;20249;-49
2023/06/13 10:13:21;;;;;;;7.15;2.47;;;;;;;21.40;52.26;101612.81;5037794;28;20282;-50
2023/06/13 10:15:58;;;;;;;7.32;2.03;;;;;;;21.48;52.35;101616.91;5036107;28;20256;-48
2023/06/13 10:18:37;;;;;;;6.22;2.03;;;;;;;21.62;52.36;101618.63;5035117;28;20290;-49
2023/06/13 10:21:06;;;;;;;3.78;2.17;;;;;;;21.20;51.77;101625.16;5035620;28;20546;-50
2023/06/13 10:23:37;;;;;;;3.75;1.85;;;;;;;21.72;50.77;101609.66;5034209;28;20199;-48
2023/06/13 10:26:08;;;;;;;3.65;2.05;;;;;;;21.98;51.58;101609.63;5034910;28;20230;-49
2023/06/13 10:28:51;;;;;;;6.78;2.00;;;;;;;21.49;52.26;101615.91;5033207;28;20283;-48
2023/06/13 10:31:48;;;;;;;6.85;2.22;;;;;;;21.58;54.25;101643.41;5036255;28;20619;-48
2023/06/13 10:34:34;;;;;;;6.53;2.20;;;;;;;22.15;53.76;101638.38;5035421;28;20646;-49
2023/06/13 10:37:08;;;;;;;7.60;2.42;;;;;;;21.67;53.23;101625.50;5037775;28;20569;-48
2023/06/13 10:39:48;;;;;;;6.90;2.50;;;;;;;21.22;54.01;101638.69;5034543;28;20184;-49
2023/06/13 10:42:36;;;;;;;7.03;2.47;;;;;;;21.15;54.83;101645.53;5038611;28;20194;-47
2023/06/13 10:45:11;;;;;;;5.10;2.55;;;;;;;21.33;54.59;101662.44;5034076;28;20167;-47
2023/06/13 10:47:39;;;;;;;7.45;2.60;;;;;;;21.19;56.26;101655.25;5039330;28;20195;-47
2023/06/13 10:50:06;;;;;;;4.85;2.38;;;;;;;22.18;55.34;101660.00;5038690;28;20241;-48
2023/06/13 10:52:31;;;;;;;3.08;2.30;;;;;;;21.68;54.57;101650.91;5022318;28;20709;-49
2023/06/13 10:54:58;;;;;;;8.10;2.70;;;;;;;21.65;55.27;101648.44;5034685;28;20258;-46
2023/06/13 10:57:49;;;;;;;6.78;2.22;;;;;;;22.13;54.55;101640.38;5034838;28;20325;-47
2023/06/13 11:00:35;;;;;;;4.43;2.42;;;;;;;21.95;54.53;101632.56;5036143;28;20564;-48
2023/06/13 11:03:05;;;;;;;6.40;2.50;;;;;;;21.29;55.97;101636.38;5040359;28;20599;-48
2023/06/13 11:05:34;;;;;;;8.30;2.80;;;;;;;21.17;55.73;101633.56;5037535;28;20186;-49
2023/06/13 11:07:59;;;;;;;8.18;2.78;;;;;;;21.71;55.92;101656.16;5014763;28;20195;-49
2023/06/13 11:10:25;;;;;;;5.88;2.50;;;;;;;21.66;54.77;101621.03;5038083;28;20194;-48
2023/06/13 11:12:54;;;;;;;10.68;2.85;;;;;;;21.94;55.53;101638.97;5036660;28;20186;-49
2023/06/13 11:15:22;;;;;;;8.32;2.85;;;;;;;21.79;54.12;101612.81;5034561;28;20187;-47
2023/06/13 11:18:09;;;;;;;7.57;2.30;;;;;;;21.69;54.56;101617.19;5033500;28;20681;-47
2023/06/13 11:20:46;;;;;;;5.72;2.38;;;;;;;21.81;52.89;101599.94;5037491;28;20171;-46
2023/06/13 11:23:13;;;;;;;6.10;2.80;;;;;;;21.70;53.99;101619.81;5036682;28;20553;-48
2023/06/13 11:25:39;;;;;;;8.90;2.22;;;;;;;22.42;53.17;101622.69;5034394;28;20545;-47
2023/06/13 11:28:05;;;;;;;6.32;2.17;;;;;;;22.32;52.12;101609.84;5033860;28;20714;-47
2023/06/13 11:30:31;;;;;;;4.55;2.42;;;;;;;22.20;51.38;101603.44;5036005;28;20341;-48